Augusta, New York
Current Conditions -  °F | °C
As of 8:53 PM on Friday 21 Nov 2014 (Local Time) from KRME Reporting Station
Overcast Overcast  
Wind Chill: 22°   Ceiling: 5500
Heat Index: 22°   Visibility: 10mi
Dew Point: 15°   Wind: 3mph
Humidity: 75%   Direction: 110°ESE
Pressure: 30.44"   Gusts: NA
Location:  42.9771°N, 75.5023°W
Report Text: KRME 220153Z 11003KT 10SM OVC055 M06/M09 A3044 RMK AO2 SLP314 T10561094
Loading
Personal Weather Stations






























Interactive Weather Map New forecast layout! Learn more

10-Day Weather Forecast

Advertisements
Track Severe Weather on mobile